Time;durP1;ratioP1;P1;durP2;ratioP2;P2;SDS_P1;SDS_P2;PMS_P1;PMS_P2;Temp;Humidity;BMP_temperature;BMP_pressure;BME280_temperature;BME280_humidity;BME280_pressure;Samples;Min_cycle;Max_cycle;Signal;HPM_P1;HPM_P2
2022/11/07 00:00:15;;;;;;;;;;;22.70;58.10;;;;;;1532078;76;685;-66
2022/11/07 00:02:17;;;;;;;;;;;22.70;58.00;;;;;;1530315;76;1435;-66
2022/11/07 00:04:19;;;;;;;;;;;22.70;58.00;;;;;;1527899;76;704;-66
2022/11/07 00:06:21;;;;;;;;;;;22.70;57.90;;;;;;1530782;76;1151;-65
2022/11/07 00:08:30;;;;;;;;;;;22.70;58.00;;;;;;1531394;76;659;-66
2022/11/07 00:10:26;;;;;;;;;;;22.70;57.90;;;;;;1529185;77;1117;-66
2022/11/07 00:12:28;;;;;;;;;;;22.80;57.90;;;;;;1529671;76;1944;-65
2022/11/07 00:14:30;;;;;;;;;;;22.70;57.80;;;;;;1531303;77;1470;-65
2022/11/07 00:16:32;;;;;;;;;;;22.80;57.80;;;;;;1531224;76;1075;-65
2022/11/07 00:18:34;;;;;;;;;;;22.80;57.80;;;;;;1545090;76;609;-65
2022/11/07 00:20:36;;;;;;;;;;;22.80;57.80;;;;;;1516182;77;795;-64
2022/11/07 00:22:37;;;;;;;;;;;22.70;57.80;;;;;;1507213;77;750;-65
2022/11/07 00:24:40;;;;;;;;;;;22.80;57.80;;;;;;1528576;76;656;-65
2022/11/07 00:26:42;;;;;;;;;;;22.80;57.70;;;;;;1531139;76;1178;-65
2022/11/07 00:28:44;;;;;;;;;;;22.80;57.70;;;;;;1531939;76;1792;-66
2022/11/07 00:30:46;;;;;;;;;;;22.70;57.90;;;;;;1530270;77;697;-65
2022/11/07 00:32:48;;;;;;;;;;;22.70;57.90;;;;;;1516951;75;232082;-72
2022/11/07 00:34:50;;;;;;;;;;;22.70;57.90;;;;;;1555204;75;771;-73
2022/11/07 00:36:52;;;;;;;;;;;22.80;57.90;;;;;;1553710;76;681;-75
2022/11/07 00:38:54;;;;;;;;;;;22.70;58.00;;;;;;1559260;75;664;-74
2022/11/07 00:40:56;;;;;;;;;;;22.70;58.10;;;;;;1556349;75;691;-73
2022/11/07 00:42:58;;;;;;;;;;;22.60;58.10;;;;;;1561873;75;1594;-73
2022/11/07 00:44:59;;;;;;;;;;;22.60;58.30;;;;;;1557921;75;706;-74
2022/11/07 00:47:01;;;;;;;;;;;22.60;58.40;;;;;;1563056;75;773;-74
2022/11/07 00:49:03;;;;;;;;;;;22.60;58.40;;;;;;1554124;75;713;-73
2022/11/07 00:51:12;;;;;;;;;;;22.60;58.30;;;;;;1558897;75;675;-73
2022/11/07 00:53:14;;;;;;;;;;;22.50;58.40;;;;;;1565680;75;1085;-73
2022/11/07 00:55:15;;;;;;;;;;;22.50;58.50;;;;;;1571514;75;676;-73
2022/11/07 00:57:17;;;;;;;;;;;22.40;58.50;;;;;;1558793;75;1545;-73
2022/11/07 00:59:19;;;;;;;;;;;22.40;58.80;;;;;;1558705;75;699;-74
2022/11/07 01:01:22;;;;;;;;;;;22.40;58.90;;;;;;1567904;75;1135;-71
2022/11/07 01:05:45;;;;;;;;;;;22.40;59.00;;;;;;1554725;75;644;-73
2022/11/07 01:07:47;;;;;;;;;;;22.40;59.00;;;;;;1553649;75;1912;-73
2022/11/07 01:09:49;;;;;;;;;;;22.30;59.10;;;;;;1558152;75;751;-73
2022/11/07 01:11:51;;;;;;;;;;;22.40;59.10;;;;;;1561509;75;1993;-72
2022/11/07 01:13:57;;;;;;;;;;;22.40;59.20;;;;;;1556480;75;711;-70
2022/11/07 01:15:59;;;;;;;;;;;22.30;59.30;;;;;;1553429;75;853;-72
2022/11/07 01:18:01;;;;;;;;;;;22.30;59.40;;;;;;1559866;75;767;-75
2022/11/07 01:20:03;;;;;;;;;;;22.30;59.40;;;;;;1557205;75;783;-72
2022/11/07 01:22:05;;;;;;;;;;;22.30;59.40;;;;;;1559054;75;1139;-72
2022/11/07 01:24:07;;;;;;;;;;;22.30;59.40;;;;;;1561647;75;634;-71
2022/11/07 01:26:09;;;;;;;;;;;22.30;59.30;;;;;;1553313;75;1573;-72
2022/11/07 01:28:11;;;;;;;;;;;22.40;59.40;;;;;;1560076;75;775;-72
2022/11/07 01:30:13;;;;;;;;;;;22.30;59.40;;;;;;1558657;75;682;-73
2022/11/07 01:32:15;;;;;;;;;;;22.20;59.30;;;;;;1557581;75;1962;-70
2022/11/07 01:34:17;;;;;;;;;;;22.30;59.40;;;;;;1557975;75;544;-72
2022/11/07 01:36:19;;;;;;;;;;;22.30;59.30;;;;;;1555955;75;650;-72
2022/11/07 01:38:20;;;;;;;;;;;22.30;59.40;;;;;;1558483;75;677;-73
2022/11/07 01:40:22;;;;;;;;;;;22.30;59.40;;;;;;1561375;75;1560;-74
2022/11/07 01:42:24;;;;;;;;;;;22.30;59.40;;;;;;1563001;73;1175;-71
2022/11/07 01:44:28;;;;;;;;;;;22.30;59.40;;;;;;1561374;75;563;-71
2022/11/07 01:46:36;;;;;;;;;;;22.30;59.40;;;;;;1559312;75;736;-72
2022/11/07 01:48:38;;;;;;;;;;;22.40;59.40;;;;;;1553548;75;698;-72
2022/11/07 01:50:40;;;;;;;;;;;22.40;59.40;;;;;;1557698;75;710;-71
2022/11/07 01:52:42;;;;;;;;;;;22.40;59.40;;;;;;1561826;75;1942;-72
2022/11/07 01:54:45;;;;;;;;;;;22.40;59.20;;;;;;1562042;75;1693;-73
2022/11/07 01:56:47;;;;;;;;;;;22.40;59.20;;;;;;1558199;75;574;-72
2022/11/07 01:58:49;;;;;;;;;;;22.40;59.20;;;;;;1561722;75;732;-72
2022/11/07 02:00:51;;;;;;;;;;;22.40;59.30;;;;;;1556247;75;621;-72
2022/11/07 02:02:54;;;;;;;;;;;22.40;59.30;;;;;;1561584;75;1147;-72
2022/11/07 02:04:56;;;;;;;;;;;22.40;59.30;;;;;;1557022;75;683;-71
2022/11/07 02:07:00;;;;;;;;;;;22.40;59.40;;;;;;1568537;75;1341;-72
2022/11/07 02:09:01;;;;;;;;;;;22.40;59.40;;;;;;1560915;75;705;-72
2022/11/07 02:11:03;;;;;;;;;;;22.30;59.40;;;;;;1560665;75;713;-72
2022/11/07 02:13:05;;;;;;;;;;;22.40;59.40;;;;;;1557784;75;1954;-73
2022/11/07 02:15:08;;;;;;;;;;;22.40;59.40;;;;;;1562916;75;648;-74
2022/11/07 02:17:11;;;;;;;;;;;22.40;59.40;;;;;;1561466;75;691;-73
2022/11/07 02:19:14;;;;;;;;;;;22.30;59.40;;;;;;1557858;75;975;-72
2022/11/07 02:21:21;;;;;;;;;;;22.30;59.60;;;;;;1561188;75;1852;-72
2022/11/07 02:23:26;;;;;;;;;;;22.20;59.50;;;;;;1562301;75;1521;-71
2022/11/07 02:25:28;;;;;;;;;;;22.30;59.70;;;;;;1560968;75;1653;-72
2022/11/07 02:27:31;;;;;;;;;;;22.20;59.60;;;;;;1533261;76;722;-72
2022/11/07 02:29:33;;;;;;;;;;;22.20;59.70;;;;;;1559648;75;712;-71
2022/11/07 02:31:35;;;;;;;;;;;22.30;59.80;;;;;;1561679;75;1136;-73
2022/11/07 02:33:36;;;;;;;;;;;22.20;59.70;;;;;;1561007;75;1935;-73
2022/11/07 02:35:39;;;;;;;;;;;22.30;59.80;;;;;;1561285;75;1564;-72
2022/11/07 02:37:41;;;;;;;;;;;22.20;59.70;;;;;;1560263;75;686;-74
2022/11/07 02:39:43;;;;;;;;;;;22.30;59.80;;;;;;1562322;75;680;-73
2022/11/07 02:41:45;;;;;;;;;;;22.30;59.80;;;;;;1559805;75;1193;-74
2022/11/07 02:43:51;;;;;;;;;;;22.30;59.80;;;;;;1565377;75;700;-73
2022/11/07 02:45:53;;;;;;;;;;;22.30;59.80;;;;;;1559595;75;1015;-71
2022/11/07 02:47:55;;;;;;;;;;;22.30;59.80;;;;;;1559153;75;626;-72
2022/11/07 02:49:57;;;;;;;;;;;22.30;59.80;;;;;;1560682;75;1526;-75
2022/11/07 02:51:59;;;;;;;;;;;22.30;59.80;;;;;;1560044;75;1948;-72
2022/11/07 02:54:01;;;;;;;;;;;22.20;59.80;;;;;;1561536;75;638;-72
2022/11/07 02:56:02;;;;;;;;;;;22.30;59.90;;;;;;1561697;75;824;-74
2022/11/07 02:58:04;;;;;;;;;;;22.30;59.90;;;;;;1564345;75;736;-73
2022/11/07 03:00:07;;;;;;;;;;;22.30;59.70;;;;;;1563867;75;807;-71
2022/11/07 03:02:09;;;;;;;;;;;22.40;59.60;;;;;;1562277;75;1170;-72
2022/11/07 03:04:11;;;;;;;;;;;22.40;59.50;;;;;;1560584;75;1537;-72
2022/11/07 03:06:13;;;;;;;;;;;22.40;59.50;;;;;;1564493;75;787;-71
2022/11/07 03:08:15;;;;;;;;;;;22.50;59.40;;;;;;1560893;75;625;-72
2022/11/07 03:10:17;;;;;;;;;;;22.50;59.20;;;;;;1559113;75;724;-72
2022/11/07 03:12:19;;;;;;;;;;;22.50;59.10;;;;;;1560322;75;1947;-72
2022/11/07 03:14:25;;;;;;;;;;;22.50;59.30;;;;;;1561002;75;833;-71
2022/11/07 03:16:24;;;;;;;;;;;22.50;59.30;;;;;;1557441;75;991;-73
2022/11/07 03:18:26;;;;;;;;;;;22.50;59.30;;;;;;1561295;75;1592;-71
2022/11/07 03:20:28;;;;;;;;;;;22.50;59.20;;;;;;1559336;75;709;-70
2022/11/07 03:22:30;;;;;;;;;;;22.50;59.10;;;;;;1561867;75;1120;-70
2022/11/07 03:24:32;;;;;;;;;;;22.50;59.10;;;;;;1561903;75;676;-70
2022/11/07 03:26:34;;;;;;;;;;;22.60;59.10;;;;;;1563388;75;724;-71
2022/11/07 03:28:36;;;;;;;;;;;22.60;59.10;;;;;;1561455;75;792;-70
2022/11/07 03:30:37;;;;;;;;;;;22.50;59.20;;;;;;1561652;75;741;-70
2022/11/07 03:32:39;;;;;;;;;;;22.50;59.20;;;;;;1565082;75;1940;-71
2022/11/07 03:34:41;;;;;;;;;;;22.50;59.30;;;;;;1562073;75;737;-72
2022/11/07 03:36:43;;;;;;;;;;;22.50;59.30;;;;;;1561165;75;724;-72
2022/11/07 03:38:45;;;;;;;;;;;22.50;59.20;;;;;;1558198;75;678;-72
2022/11/07 03:40:47;;;;;;;;;;;22.50;59.20;;;;;;1563122;75;675;-72
2022/11/07 03:42:49;;;;;;;;;;;22.50;59.30;;;;;;1560607;75;1209;-72
2022/11/07 03:44:50;;;;;;;;;;;22.40;59.20;;;;;;1564948;75;730;-73
2022/11/07 03:46:52;;;;;;;;;;;22.50;59.30;;;;;;1560948;75;1560;-73
2022/11/07 03:48:55;;;;;;;;;;;22.40;59.30;;;;;;1562549;75;748;-73
2022/11/07 03:50:56;;;;;;;;;;;22.40;59.30;;;;;;1561478;75;666;-74
2022/11/07 03:52:58;;;;;;;;;;;22.50;59.40;;;;;;1559122;75;1978;-73
2022/11/07 03:55:00;;;;;;;;;;;22.40;59.40;;;;;;1557358;75;811;-73
2022/11/07 03:57:02;;;;;;;;;;;22.40;59.40;;;;;;1559342;75;720;-69
2022/11/07 03:59:04;;;;;;;;;;;22.40;59.50;;;;;;1564141;75;883;-71
2022/11/07 04:01:06;;;;;;;;;;;22.40;59.40;;;;;;1561347;75;1358;-71
2022/11/07 04:03:08;;;;;;;;;;;22.40;59.40;;;;;;1563871;75;1125;-71
2022/11/07 04:05:10;;;;;;;;;;;22.40;59.40;;;;;;1561257;75;739;-72
2022/11/07 04:07:11;;;;;;;;;;;22.40;59.50;;;;;;1562729;75;686;-71
2022/11/07 04:09:13;;;;;;;;;;;22.40;59.50;;;;;;1563475;75;729;-71
2022/11/07 04:17:59;;;;;;;;;;;22.40;59.40;;;;;;1563795;75;1650;-72
2022/11/07 04:20:01;;;;;;;;;;;22.50;59.50;;;;;;1559472;75;717;-74
2022/11/07 04:22:03;;;;;;;;;;;22.50;59.50;;;;;;1559380;75;1079;-72
2022/11/07 04:24:05;;;;;;;;;;;22.50;59.30;;;;;;1559733;75;726;-72
2022/11/07 04:28:26;;;;;;;;;;;22.50;59.40;;;;;;1556704;75;1628;-72
2022/11/07 04:30:28;;;;;;;;;;;22.50;59.30;;;;;;1559366;75;555;-72
2022/11/07 04:32:30;;;;;;;;;;;22.50;59.40;;;;;;1561969;75;1936;-72
2022/11/07 04:34:32;;;;;;;;;;;22.50;59.40;;;;;;1561636;75;798;-72
2022/11/07 04:36:37;;;;;;;;;;;22.50;59.50;;;;;;1562115;75;775;-74
2022/11/07 04:38:37;;;;;;;;;;;22.50;59.50;;;;;;1558536;75;1662;-72
2022/11/07 04:40:39;;;;;;;;;;;22.40;59.50;;;;;;1561319;76;736;-70
2022/11/07 04:42:41;;;;;;;;;;;22.40;59.60;;;;;;1560600;75;1570;-72
2022/11/07 04:44:43;;;;;;;;;;;22.40;59.60;;;;;;1562366;75;612;-71
2022/11/07 04:46:45;;;;;;;;;;;22.40;59.50;;;;;;1562308;76;659;-72
2022/11/07 04:48:47;;;;;;;;;;;22.50;59.50;;;;;;1561908;75;695;-73
2022/11/07 04:50:49;;;;;;;;;;;22.40;59.40;;;;;;1559670;75;568;-71
2022/11/07 04:52:51;;;;;;;;;;;22.40;59.40;;;;;;1562948;75;1936;-72
2022/11/07 04:54:52;;;;;;;;;;;22.50;59.60;;;;;;1565679;75;752;-72
2022/11/07 04:56:55;;;;;;;;;;;22.40;59.50;;;;;;1559395;75;1559;-71
2022/11/07 04:58:56;;;;;;;;;;;22.40;59.60;;;;;;1559864;75;808;-71
2022/11/07 05:00:58;;;;;;;;;;;22.40;59.60;;;;;;1559346;75;786;-72
2022/11/07 05:03:00;;;;;;;;;;;22.40;59.70;;;;;;1557724;75;1120;-72
2022/11/07 05:05:02;;;;;;;;;;;22.40;59.70;;;;;;1561640;75;691;-67
2022/11/07 05:07:04;;;;;;;;;;;22.40;59.80;;;;;;1565747;75;740;-70
2022/11/07 05:09:08;;;;;;;;;;;22.50;59.80;;;;;;1557063;75;891;-72
2022/11/07 05:11:09;;;;;;;;;;;22.40;59.60;;;;;;1553825;75;1676;-71
2022/11/07 05:13:11;;;;;;;;;;;22.40;59.60;;;;;;1560439;75;1956;-72
2022/11/07 05:15:13;;;;;;;;;;;22.40;59.50;;;;;;1559679;75;672;-73
2022/11/07 05:17:15;;;;;;;;;;;22.40;59.50;;;;;;1561389;75;704;-70
2022/11/07 05:19:17;;;;;;;;;;;22.40;59.50;;;;;;1554919;75;682;-71
2022/11/07 05:21:19;;;;;;;;;;;22.40;59.60;;;;;;1561898;75;748;-70
2022/11/07 05:23:21;;;;;;;;;;;22.40;59.60;;;;;;1558766;75;667;-71
2022/11/07 05:25:23;;;;;;;;;;;22.40;59.60;;;;;;1557814;75;1671;-71
2022/11/07 05:27:25;;;;;;;;;;;22.40;59.70;;;;;;1559877;75;744;-71
2022/11/07 05:29:27;;;;;;;;;;;22.40;59.60;;;;;;1561203;76;881;-72
2022/11/07 05:31:29;;;;;;;;;;;22.40;59.70;;;;;;1558781;75;1169;-70
2022/11/07 05:33:31;;;;;;;;;;;22.40;59.70;;;;;;1559885;75;1923;-70
2022/11/07 05:35:33;;;;;;;;;;;22.40;59.60;;;;;;1561616;76;803;-72
2022/11/07 05:37:35;;;;;;;;;;;22.40;59.60;;;;;;1557453;75;637;-73
2022/11/07 05:39:36;;;;;;;;;;;22.40;59.60;;;;;;1558518;75;1552;-71
2022/11/07 05:41:38;;;;;;;;;;;22.40;59.70;;;;;;1560709;75;1179;-71
2022/11/07 05:43:40;;;;;;;;;;;22.40;59.60;;;;;;1561349;75;701;-71
2022/11/07 05:45:42;;;;;;;;;;;22.40;59.70;;;;;;1560842;75;712;-71
2022/11/07 05:47:44;;;;;;;;;;;22.40;59.70;;;;;;1560768;75;642;-71
2022/11/07 05:49:46;;;;;;;;;;;22.40;59.70;;;;;;1561516;75;696;-70
2022/11/07 05:51:48;;;;;;;;;;;22.40;59.80;;;;;;1560594;75;1141;-71
2022/11/07 05:53:50;;;;;;;;;;;22.40;59.70;;;;;;1565809;75;1924;-71
2022/11/07 05:55:52;;;;;;;;;;;22.50;59.70;;;;;;1561494;75;669;-67
2022/11/07 05:57:54;;;;;;;;;;;22.40;59.70;;;;;;1561247;75;590;-69
2022/11/07 05:59:56;;;;;;;;;;;22.40;59.80;;;;;;1562912;75;703;-70
2022/11/07 06:01:58;;;;;;;;;;;22.50;59.90;;;;;;1560819;75;1160;-72
2022/11/07 06:04:00;;;;;;;;;;;22.40;60.10;;;;;;1556095;75;676;-73
2022/11/07 06:06:02;;;;;;;;;;;22.40;60.30;;;;;;1560692;75;1560;-70
2022/11/07 06:08:10;;;;;;;;;;;22.40;60.30;;;;;;1562974;75;740;-71
2022/11/07 06:10:12;;;;;;;;;;;22.50;60.20;;;;;;1561076;75;762;-70
2022/11/07 06:12:14;;;;;;;;;;;22.50;60.00;;;;;;1560494;75;1182;-71
2022/11/07 06:14:16;;;;;;;;;;;22.40;60.00;;;;;;1555182;75;1913;-72
2022/11/07 06:16:18;;;;;;;;;;;22.50;60.20;;;;;;1558308;75;661;-73
2022/11/07 06:18:20;;;;;;;;;;;22.60;59.80;;;;;;1564800;75;712;-71
2022/11/07 06:20:21;;;;;;;;;;;22.60;59.70;;;;;;1559032;75;1380;-70
2022/11/07 06:22:24;;;;;;;;;;;22.60;59.50;;;;;;1560408;75;1128;-68
2022/11/07 06:24:26;;;;;;;;;;;22.60;59.50;;;;;;1560613;75;736;-68
2022/11/07 06:26:28;;;;;;;;;;;22.70;59.50;;;;;;1560584;75;752;-69
2022/11/07 06:28:30;;;;;;;;;;;22.70;59.50;;;;;;1563940;75;702;-69
2022/11/07 06:30:32;;;;;;;;;;;22.70;59.40;;;;;;1556915;75;726;-71
2022/11/07 06:32:34;;;;;;;;;;;22.60;59.30;;;;;;1547469;72;232207;-59
2022/11/07 06:34:35;;;;;;;;;;;22.60;59.40;;;;;;1514395;77;2001;-62
2022/11/07 06:36:37;;;;;;;;;;;22.40;59.90;;;;;;1520478;77;669;-58
2022/11/07 06:38:39;;;;;;;;;;;22.40;60.20;;;;;;1532587;76;1191;-61
2022/11/07 06:40:41;;;;;;;;;;;22.40;60.30;;;;;;1538237;76;696;-60
2022/11/07 06:42:43;;;;;;;;;;;22.50;60.10;;;;;;1535920;76;735;-62
2022/11/07 06:44:45;;;;;;;;;;;22.50;59.90;;;;;;1537816;76;696;-61
2022/11/07 06:46:47;;;;;;;;;;;22.50;59.80;;;;;;1537045;76;684;-61
2022/11/07 06:48:49;;;;;;;;;;;22.50;59.90;;;;;;1535621;76;1486;-60
2022/11/07 06:50:52;;;;;;;;;;;22.50;60.00;;;;;;1536147;76;616;-61
2022/11/07 06:52:54;;;;;;;;;;;22.40;59.80;;;;;;1535353;76;1582;-61
2022/11/07 06:54:56;;;;;;;;;;;22.40;59.90;;;;;;1539107;76;1942;-61
2022/11/07 06:56:58;;;;;;;;;;;22.40;60.00;;;;;;1534745;76;711;-61
2022/11/07 06:59:00;;;;;;;;;;;22.30;60.00;;;;;;1538150;76;1111;-60
2022/11/07 07:01:02;;;;;;;;;;;22.20;59.90;;;;;;1538784;76;766;-61
2022/11/07 07:03:04;;;;;;;;;;;22.30;60.10;;;;;;1534832;76;1463;-61
2022/11/07 07:05:06;;;;;;;;;;;22.20;60.00;;;;;;1535588;76;689;-61
2022/11/07 07:07:08;;;;;;;;;;;22.30;60.10;;;;;;1534692;76;1122;-61
2022/11/07 07:09:10;;;;;;;;;;;22.20;60.00;;;;;;1537808;76;690;-61
2022/11/07 07:11:12;;;;;;;;;;;22.10;60.10;;;;;;1537984;77;635;-60
2022/11/07 07:13:14;;;;;;;;;;;22.20;60.10;;;;;;1538519;76;667;-61
2022/11/07 07:15:16;;;;;;;;;;;22.10;60.10;;;;;;1538462;76;1945;-58
2022/11/07 07:17:18;;;;;;;;;;;22.20;60.10;;;;;;1537060;76;1467;-59
2022/11/07 07:19:20;;;;;;;;;;;22.10;60.10;;;;;;1536354;76;652;-59
2022/11/07 07:21:22;;;;;;;;;;;22.10;60.10;;;;;;1538716;76;695;-59
2022/11/07 07:23:24;;;;;;;;;;;22.10;60.10;;;;;;1538080;76;657;-60
2022/11/07 07:25:26;;;;;;;;;;;22.10;60.10;;;;;;1536158;76;638;-59
2022/11/07 07:27:28;;;;;;;;;;;22.10;60.10;;;;;;1534332;76;1086;-59
2022/11/07 07:29:30;;;;;;;;;;;22.10;60.00;;;;;;1543922;76;670;-58
2022/11/07 07:31:31;;;;;;;;;;;22.10;59.90;;;;;;1529891;76;1796;-58
2022/11/07 07:33:33;;;;;;;;;;;22.00;59.80;;;;;;1537830;76;778;-59
2022/11/07 07:35:35;;;;;;;;;;;22.00;59.80;;;;;;1536216;76;1928;-59
2022/11/07 07:37:37;;;;;;;;;;;22.10;60.00;;;;;;1537458;76;1189;-60
2022/11/07 07:39:39;;;;;;;;;;;22.10;59.90;;;;;;1537703;76;662;-59
2022/11/07 07:41:41;;;;;;;;;;;22.10;59.90;;;;;;1537647;77;603;-60
2022/11/07 07:43:43;;;;;;;;;;;22.00;59.70;;;;;;1537931;76;684;-59
2022/11/07 07:45:45;;;;;;;;;;;22.10;59.80;;;;;;1535115;76;1464;-58
2022/11/07 07:47:47;;;;;;;;;;;22.10;59.80;;;;;;1536122;76;1156;-62
2022/11/07 07:49:48;;;;;;;;;;;22.10;59.80;;;;;;1537120;76;714;-63
2022/11/07 07:51:50;;;;;;;;;;;22.10;59.70;;;;;;1535631;77;736;-63
2022/11/07 07:53:52;;;;;;;;;;;22.10;59.70;;;;;;1537321;76;1929;-64
2022/11/07 07:55:57;;;;;;;;;;;22.10;59.70;;;;;;1537971;76;664;-63
2022/11/07 07:57:59;;;;;;;;;;;22.20;59.60;;;;;;1540096;76;1134;-63
2022/11/07 08:00:01;;;;;;;;;;;22.10;59.70;;;;;;1529961;76;1455;-63
2022/11/07 08:02:03;;;;;;;;;;;22.10;59.70;;;;;;1535362;76;680;-62
2022/11/07 08:04:05;;;;;;;;;;;22.20;59.60;;;;;;1537829;76;722;-62
2022/11/07 08:06:07;;;;;;;;;;;22.10;59.60;;;;;;1536210;76;696;-58
2022/11/07 08:08:09;;;;;;;;;;;22.10;59.60;;;;;;1537740;76;1147;-57
2022/11/07 08:10:11;;;;;;;;;;;22.20;59.60;;;;;;1538817;76;634;-56
2022/11/07 08:12:12;;;;;;;;;;;22.30;59.60;;;;;;1538427;76;730;-57
2022/11/07 08:14:14;;;;;;;;;;;22.30;59.50;;;;;;1537956;76;1922;-57
2022/11/07 08:16:16;;;;;;;;;;;22.40;59.50;;;;;;1536419;76;750;-59
2022/11/07 08:18:20;;;;;;;;;;;22.20;59.40;;;;;;1538768;76;1126;-60
2022/11/07 08:20:26;;;;;;;;;;;22.30;59.60;;;;;;1537506;76;1616;-59
2022/11/07 08:22:28;;;;;;;;;;;22.20;59.70;;;;;;1537414;76;2017;-59
2022/11/07 08:24:30;;;;;;;;;;;22.10;59.80;;;;;;1537079;76;592;-60
2022/11/07 08:26:32;;;;;;;;;;;22.10;59.90;;;;;;1536961;76;606;-58
2022/11/07 08:28:34;;;;;;;;;;;22.10;60.00;;;;;;1538243;76;1638;-59
2022/11/07 08:30:36;;;;;;;;;;;22.10;60.10;;;;;;1537874;76;618;-59
2022/11/07 08:32:38;;;;;;;;;;;22.00;60.00;;;;;;1538290;76;744;-60
2022/11/07 08:34:40;;;;;;;;;;;22.00;60.10;;;;;;1537760;76;1920;-61
2022/11/07 08:36:42;;;;;;;;;;;22.00;60.20;;;;;;1535162;76;685;-60
2022/11/07 08:38:44;;;;;;;;;;;22.00;60.20;;;;;;1526120;76;1130;-57
2022/11/07 08:40:46;;;;;;;;;;;22.00;60.20;;;;;;1538204;76;1544;-61
2022/11/07 08:42:48;;;;;;;;;;;22.10;60.30;;;;;;1538641;76;568;-61
2022/11/07 08:44:50;;;;;;;;;;;22.20;60.20;;;;;;1538860;76;643;-62
2022/11/07 08:46:51;;;;;;;;;;;22.30;60.20;;;;;;1538383;76;672;-62
2022/11/07 08:48:53;;;;;;;;;;;22.30;60.40;;;;;;1535954;77;1117;-58
2022/11/07 08:50:56;;;;;;;;;;;22.30;60.70;;;;;;1537798;76;684;-60
2022/11/07 08:52:59;;;;;;;;;;;22.20;60.80;;;;;;1538698;76;778;-60
2022/11/07 08:55:00;;;;;;;;;;;22.30;61.30;;;;;;1538000;76;1934;-60
2022/11/07 08:57:02;;;;;;;;;;;22.30;61.40;;;;;;1537061;76;762;-60
2022/11/07 08:59:04;;;;;;;;;;;22.40;61.50;;;;;;1535733;76;1142;-60
2022/11/07 09:01:06;;;;;;;;;;;22.30;61.60;;;;;;1533583;76;924;-61
2022/11/07 09:03:10;;;;;;;;;;;22.40;61.70;;;;;;1537951;76;702;-61
2022/11/07 09:05:12;;;;;;;;;;;22.40;61.70;;;;;;1538254;76;1001;-60
2022/11/07 09:07:14;;;;;;;;;;;22.40;61.70;;;;;;1537575;76;1146;-61
2022/11/07 09:09:16;;;;;;;;;;;22.40;61.70;;;;;;1535873;76;1375;-59
2022/11/07 09:11:18;;;;;;;;;;;22.40;61.70;;;;;;1537950;76;684;-60
2022/11/07 09:13:20;;;;;;;;;;;22.40;61.70;;;;;;1536466;77;705;-60
2022/11/07 09:15:22;;;;;;;;;;;22.40;61.70;;;;;;1532992;76;1936;-61
2022/11/07 09:17:23;;;;;;;;;;;22.50;61.90;;;;;;1536613;76;1186;-61
2022/11/07 09:19:26;;;;;;;;;;;22.50;61.80;;;;;;1534721;76;682;-60
2022/11/07 09:21:28;;;;;;;;;;;22.50;61.80;;;;;;1534645;76;707;-60
2022/11/07 09:23:30;;;;;;;;;;;22.50;61.70;;;;;;1530972;76;1453;-59
2022/11/07 09:25:32;;;;;;;;;;;22.50;61.60;;;;;;1539157;76;691;-60
2022/11/07 09:27:34;;;;;;;;;;;22.60;61.50;;;;;;1537822;76;1122;-60
2022/11/07 09:29:36;;;;;;;;;;;22.60;61.30;;;;;;1530830;76;673;-60
2022/11/07 09:31:38;;;;;;;;;;;22.60;61.20;;;;;;1537741;76;692;-60
2022/11/07 09:33:40;;;;;;;;;;;22.70;61.00;;;;;;1537935;76;722;-59
2022/11/07 09:35:42;;;;;;;;;;;22.70;60.80;;;;;;1531243;76;1924;-59
2022/11/07 09:37:44;;;;;;;;;;;22.80;60.60;;;;;;1537773;76;1466;-60
2022/11/07 09:39:45;;;;;;;;;;;22.80;60.50;;;;;;1536554;76;756;-60
2022/11/07 09:42:04;;;;;;;;;;;22.90;60.50;;;;;;1538109;76;706;-59
2022/11/07 09:44:08;;;;;;;;;;;23.00;60.30;;;;;;1533264;76;781;-60
2022/11/07 09:46:27;;;;;;;;;;;23.00;60.20;;;;;;1530344;76;677;-61
2022/11/07 09:48:30;;;;;;;;;;;23.00;60.00;;;;;;1535481;76;1185;-59
2022/11/07 09:50:34;;;;;;;;;;;23.00;59.80;;;;;;1536870;76;753;-60
2022/11/07 09:52:46;;;;;;;;;;;23.10;59.80;;;;;;1534785;76;1474;-59
2022/11/07 09:54:50;;;;;;;;;;;23.10;59.60;;;;;;1538468;76;1925;-59
2022/11/07 09:56:52;;;;;;;;;;;23.10;59.50;;;;;;1532699;76;1905;-59
2022/11/07 09:58:54;;;;;;;;;;;23.10;59.40;;;;;;1537251;76;1110;-59
2022/11/07 10:00:56;;;;;;;;;;;23.10;59.30;;;;;;1534648;76;958;-59
2022/11/07 10:02:59;;;;;;;;;;;23.10;59.20;;;;;;1537677;76;638;-59
2022/11/07 10:05:01;;;;;;;;;;;23.10;58.90;;;;;;1537786;76;680;-59
2022/11/07 10:07:04;;;;;;;;;;;23.10;58.80;;;;;;1530423;76;705;-59
2022/11/07 10:09:13;;;;;;;;;;;23.10;58.80;;;;;;1534134;76;1179;-61
2022/11/07 10:11:34;;;;;;;;;;;23.10;58.70;;;;;;1533610;76;717;-59
2022/11/07 10:13:38;;;;;;;;;;;23.10;58.70;;;;;;1532489;76;683;-60
2022/11/07 10:15:58;;;;;;;;;;;23.20;58.70;;;;;;1537178;76;1931;-60
2022/11/07 10:18:04;;;;;;;;;;;23.10;58.80;;;;;;1535754;76;1204;-60
2022/11/07 10:20:17;;;;;;;;;;;23.10;58.70;;;;;;1534080;76;1941;-62
2022/11/07 10:22:29;;;;;;;;;;;23.20;58.70;;;;;;1534512;76;696;-60
2022/11/07 10:24:36;;;;;;;;;;;23.10;58.70;;;;;;1536338;76;1996;-60
2022/11/07 10:26:38;;;;;;;;;;;23.10;58.70;;;;;;1536764;76;716;-60
2022/11/07 10:28:44;;;;;;;;;;;23.10;58.70;;;;;;1507008;77;1374;-60
2022/11/07 10:30:46;;;;;;;;;;;23.20;58.70;;;;;;1537961;76;664;-61
2022/11/07 10:32:53;;;;;;;;;;;23.10;58.70;;;;;;1525052;76;660;-60
2022/11/07 10:35:03;;;;;;;;;;;23.00;58.50;;;;;;1536614;76;1934;-62
2022/11/07 10:37:05;;;;;;;;;;;23.00;58.50;;;;;;1533556;76;1625;-59
2022/11/07 10:39:13;;;;;;;;;;;23.10;58.70;;;;;;1532611;76;1056;-59
2022/11/07 10:41:16;;;;;;;;;;;23.10;58.80;;;;;;1521907;76;642;-60
2022/11/07 10:43:37;;;;;;;;;;;23.00;58.70;;;;;;1532194;76;677;-60
2022/11/07 10:45:39;;;;;;;;;;;23.00;58.80;;;;;;1534047;76;718;-60
2022/11/07 10:47:41;;;;;;;;;;;23.00;58.80;;;;;;1537986;76;1559;-58
2022/11/07 10:49:44;;;;;;;;;;;23.00;58.80;;;;;;1537408;76;685;-59
2022/11/07 10:51:46;;;;;;;;;;;23.00;58.80;;;;;;1528858;76;1768;-59
2022/11/07 10:53:49;;;;;;;;;;;23.00;58.80;;;;;;1531904;76;661;-59
2022/11/07 10:55:51;;;;;;;;;;;23.00;58.80;;;;;;1534461;76;1924;-60
2022/11/07 10:58:01;;;;;;;;;;;23.00;58.80;;;;;;1528480;76;1111;-59
2022/11/07 11:00:04;;;;;;;;;;;23.00;58.80;;;;;;1538066;76;1813;-59
2022/11/07 11:02:23;;;;;;;;;;;23.00;58.80;;;;;;1538060;76;1454;-60
2022/11/07 11:04:26;;;;;;;;;;;23.00;58.90;;;;;;1528850;76;749;-60
2022/11/07 11:06:29;;;;;;;;;;;22.90;59.10;;;;;;1534855;76;1870;-61
2022/11/07 11:08:32;;;;;;;;;;;23.00;59.20;;;;;;1529246;76;1090;-60
2022/11/07 11:10:36;;;;;;;;;;;22.90;59.20;;;;;;1524748;76;1932;-60
2022/11/07 11:12:38;;;;;;;;;;;22.90;59.20;;;;;;1521699;76;661;-60
2022/11/07 11:14:40;;;;;;;;;;;22.90;59.30;;;;;;1507322;77;1172;-60
2022/11/07 11:16:42;;;;;;;;;;;22.90;59.30;;;;;;1535925;76;1936;-60
2022/11/07 11:18:50;;;;;;;;;;;22.80;59.30;;;;;;1536769;76;1148;-60
2022/11/07 11:20:56;;;;;;;;;;;22.80;59.30;;;;;;1531809;76;720;-60
2022/11/07 11:22:58;;;;;;;;;;;22.90;59.40;;;;;;1527800;76;722;-61
2022/11/07 11:25:02;;;;;;;;;;;22.90;59.40;;;;;;1539086;76;699;-60
2022/11/07 11:27:05;;;;;;;;;;;22.80;59.30;;;;;;1535649;76;1521;-59
2022/11/07 11:29:08;;;;;;;;;;;22.80;59.30;;;;;;1524624;76;1190;-56
2022/11/07 11:31:12;;;;;;;;;;;22.70;59.30;;;;;;1533022;76;1504;-56
2022/11/07 11:33:15;;;;;;;;;;;22.70;59.40;;;;;;1512302;76;1719;-56
2022/11/07 11:35:37;;;;;;;;;;;22.70;59.50;;;;;;1537898;76;1921;-59
2022/11/07 11:37:41;;;;;;;;;;;22.80;59.60;;;;;;1448629;80;1173;-60
2022/11/07 11:39:50;;;;;;;;;;;22.70;59.60;;;;;;1445659;80;677;-57
2022/11/07 11:41:56;;;;;;;;;;;22.70;59.60;;;;;;1454943;80;806;-57
2022/11/07 11:44:08;;;;;;;;;;;22.70;59.60;;;;;;1523949;76;1452;-58
2022/11/07 11:46:17;;;;;;;;;;;22.70;59.60;;;;;;1501957;77;1048;-57
2022/11/07 11:48:36;;;;;;;;;;;22.60;59.60;;;;;;1530402;76;1146;-56
2022/11/07 11:50:40;;;;;;;;;;;22.60;59.60;;;;;;1484026;78;1092;-57
2022/11/07 11:52:42;;;;;;;;;;;22.70;59.80;;;;;;1505785;76;948;-56
2022/11/07 11:54:44;;;;;;;;;;;22.60;59.70;;;;;;1532901;76;646;-58
2022/11/07 11:56:56;;;;;;;;;;;22.70;59.80;;;;;;1538401;76;1932;-60
2022/11/07 11:59:09;;;;;;;;;;;22.60;59.70;;;;;;1533953;76;1473;-56
2022/11/07 12:01:15;;;;;;;;;;;22.60;59.70;;;;;;1538212;76;742;-59
2022/11/07 12:03:28;;;;;;;;;;;22.60;59.70;;;;;;1524898;76;736;-61
2022/11/07 12:05:48;;;;;;;;;;;22.60;59.70;;;;;;1526913;76;1974;-59
2022/11/07 12:07:57;;;;;;;;;;;22.60;59.80;;;;;;1536335;76;1139;-62
2022/11/07 12:10:06;;;;;;;;;;;22.60;59.80;;;;;;1534140;76;734;-56
2022/11/07 12:12:09;;;;;;;;;;;22.60;59.90;;;;;;1534801;76;1415;-60
2022/11/07 12:14:13;;;;;;;;;;;22.60;59.90;;;;;;1512563;76;1040;-55
2022/11/07 12:16:19;;;;;;;;;;;22.60;59.90;;;;;;1536210;76;1932;-57
2022/11/07 12:18:23;;;;;;;;;;;22.50;59.90;;;;;;1537835;76;1227;-59
2022/11/07 12:20:29;;;;;;;;;;;22.50;59.90;;;;;;1537107;76;767;-57
2022/11/07 12:22:33;;;;;;;;;;;22.50;59.90;;;;;;1534334;76;1116;-58
2022/11/07 12:24:39;;;;;;;;;;;22.60;59.90;;;;;;1538290;76;665;-57